Time;durP1;ratioP1;P1;durP2;ratioP2;P2;SDS_P1;SDS_P2;PMS_P1;PMS_P2;Temp;Humidity;BMP_temperature;BMP_pressure;BME280_temperature;BME280_humidity;BME280_pressure;Samples;Min_cycle;Max_cycle;Signal;HPM_P1;HPM_P2
2023/08/25 00:02:08;;;;;;;12.90;7.82;;;20.30;99.90;;;;;;4982565;28;20218;-66
2023/08/25 00:04:35;;;;;;;8.27;6.70;;;20.30;99.90;;;;;;5002821;28;20871;-67
2023/08/25 00:07:02;;;;;;;8.85;7.03;;;20.30;99.90;;;;;;4971610;28;20583;-66
2023/08/25 00:09:28;;;;;;;10.93;6.60;;;17.50;99.90;;;;;;4988153;28;20202;-67
2023/08/25 00:11:55;;;;;;;8.32;6.55;;;20.30;99.90;;;;;;5002845;28;20809;-66
2023/08/25 00:14:23;;;;;;;8.50;6.57;;;20.30;99.90;;;;;;4984041;28;20872;-67
2023/08/25 00:16:50;;;;;;;10.00;6.50;;;20.30;99.90;;;;;;4992933;28;20566;-67
2023/08/25 00:19:17;;;;;;;8.48;6.57;;;20.30;99.90;;;;;;5002828;28;20206;-66
2023/08/25 00:21:43;;;;;;;8.02;7.10;;;20.30;99.90;;;;;;4966390;28;20241;-67
2023/08/25 00:24:10;;;;;;;11.98;8.27;;;20.30;99.90;;;;;;5001650;28;20572;-66
2023/08/25 00:26:39;;;;;;;16.80;8.60;;;20.20;99.90;;;;;;4991310;28;20229;-66
2023/08/25 00:29:06;;;;;;;9.18;8.20;;;20.20;99.90;;;;;;4995315;28;20199;-67
2023/08/25 00:31:34;;;;;;;13.80;8.57;;;20.20;99.90;;;;;;4985341;28;21153;-67
2023/08/25 00:34:02;;;;;;;9.35;7.72;;;20.20;99.90;;;;;;4997956;28;20763;-67
2023/08/25 00:36:29;;;;;;;12.43;8.32;;;20.20;99.90;;;;;;4997007;28;20244;-66
2023/08/25 00:38:55;;;;;;;10.20;8.20;;;20.20;99.90;;;;;;4957634;28;20671;-66
2023/08/25 00:41:23;;;;;;;12.70;8.63;;;20.10;99.90;;;;;;4986765;28;20228;-66
2023/08/25 00:43:49;;;;;;;12.30;8.43;;;20.10;99.90;;;;;;4996679;28;20206;-67
2023/08/25 00:46:21;;;;;;;15.55;9.00;;;20.10;99.90;;;;;;5000211;28;20202;-67
2023/08/25 00:48:50;;;;;;;11.65;8.95;;;20.10;99.90;;;;;;4982506;28;20210;-67
2023/08/25 00:51:17;;;;;;;12.73;9.43;;;20.30;99.90;;;;;;4991517;28;20205;-66
2023/08/25 00:53:46;;;;;;;10.00;8.93;;;20.10;99.90;;;;;;4969455;28;20240;-66
2023/08/25 00:56:14;;;;;;;10.73;9.00;;;20.10;99.90;;;;;;4994302;28;20205;-66
2023/08/25 00:58:41;;;;;;;10.00;8.50;;;20.10;99.90;;;;;;4998556;28;20230;-66
2023/08/25 01:01:08;;;;;;;9.85;8.60;;;20.00;99.90;;;;;;4982759;28;20198;-66
2023/08/25 01:03:38;;;;;;;19.55;9.57;;;20.00;99.90;;;;;;4992766;28;20205;-66
2023/08/25 01:06:08;;;;;;;10.18;8.18;;;20.00;99.90;;;;;;4981241;28;20677;-67
2023/08/25 01:08:35;;;;;;;11.88;9.32;;;20.10;99.90;;;;;;4996803;28;20201;-67
2023/08/25 01:11:15;;;;;;;10.10;8.80;;;20.10;99.90;;;;;;4943474;28;20392;-67
2023/08/25 01:13:49;;;;;;;10.88;9.00;;;20.00;99.90;;;;;;4998801;28;20293;-66
2023/08/25 01:16:22;;;;;;;14.77;9.77;;;20.00;99.90;;;;;;4985875;28;20193;-66
2023/08/25 01:18:49;;;;;;;14.05;8.43;;;20.00;99.90;;;;;;4988068;28;20578;-66
2023/08/25 01:21:17;;;;;;;12.00;8.45;;;20.00;99.90;;;;;;4993891;28;20198;-67
2023/08/25 01:23:52;;;;;;;15.10;8.85;;;20.10;99.90;;;;;;4977062;28;20573;-66
2023/08/25 01:26:20;;;;;;;13.77;8.10;;;20.10;99.90;;;;;;4970824;28;20217;-65
2023/08/25 01:28:51;;;;;;;13.98;8.20;;;20.00;99.90;;;;;;4996881;28;20198;-66
2023/08/25 01:31:19;;;;;;;12.20;8.63;;;19.90;99.90;;;;;;4982216;28;20202;-66
2023/08/25 01:33:47;;;;;;;12.45;8.20;;;20.00;99.90;;;;;;4996633;28;20742;-66
2023/08/25 01:36:23;;;;;;;9.32;8.05;;;19.90;99.90;;;;;;4979188;28;20210;-66
2023/08/25 01:38:57;;;;;;;12.27;8.82;;;19.90;99.90;;;;;;4978218;28;20216;-66
2023/08/25 01:41:31;;;;;;;13.90;9.07;;;19.90;99.90;;;;;;4950065;28;20240;-66
2023/08/25 01:44:02;;;;;;;10.70;8.40;;;19.90;99.90;;;;;;4990814;28;20643;-66
2023/08/25 01:46:30;;;;;;;15.50;8.88;;;19.90;99.90;;;;;;5001155;28;20681;-66
2023/08/25 01:48:59;;;;;;;9.93;8.18;;;19.90;99.90;;;;;;4978207;28;20213;-66
2023/08/25 01:51:26;;;;;;;10.98;7.70;;;19.90;99.90;;;;;;4996068;28;20194;-66
2023/08/25 01:53:55;;;;;;;10.82;8.23;;;19.80;99.90;;;;;;4982613;28;20206;-66
2023/08/25 01:56:22;;;;;;;15.25;8.80;;;19.90;99.90;;;;;;4960271;28;20209;-66
2023/08/25 01:58:50;;;;;;;14.60;8.48;;;19.80;99.90;;;;;;4982850;28;20233;-66
2023/08/25 02:01:17;;;;;;;16.50;8.30;;;19.80;99.90;;;;;;4992704;28;20241;-66
2023/08/25 02:03:44;;;;;;;9.07;8.07;;;19.90;99.90;;;;;;4985932;28;20297;-66
2023/08/25 02:06:11;;;;;;;11.18;8.88;;;19.70;99.90;;;;;;4994123;28;20228;-66
2023/08/25 02:08:38;;;;;;;13.75;8.65;;;19.80;99.90;;;;;;4997525;28;20602;-66
2023/08/25 02:11:05;;;;;;;11.55;8.00;;;19.70;99.90;;;;;;4952327;28;20602;-66
2023/08/25 02:13:32;;;;;;;11.32;9.93;;;19.80;99.90;;;;;;4986781;28;20210;-66
2023/08/25 02:16:00;;;;;;;12.43;8.98;;;19.70;99.90;;;;;;4993506;28;20199;-66
2023/08/25 02:18:27;;;;;;;14.70;9.48;;;19.80;99.90;;;;;;4991236;28;20214;-66
2023/08/25 02:20:55;;;;;;;13.75;9.85;;;19.80;99.90;;;;;;5001563;28;20689;-66
2023/08/25 02:23:22;;;;;;;11.32;9.30;;;19.70;99.90;;;;;;5006626;28;20232;-66
2023/08/25 02:25:49;;;;;;;12.00;9.95;;;19.60;99.90;;;;;;4998417;28;20202;-66
2023/08/25 02:28:16;;;;;;;13.68;9.60;;;19.60;99.90;;;;;;4967129;28;20205;-66
2023/08/25 02:30:43;;;;;;;11.70;8.65;;;19.70;99.90;;;;;;4997809;28;20209;-66
2023/08/25 02:33:11;;;;;;;13.02;9.13;;;19.70;99.90;;;;;;4979776;28;20216;-67
2023/08/25 02:35:38;;;;;;;12.05;10.05;;;19.70;99.90;;;;;;4996486;28;20208;-66
2023/08/25 02:38:07;;;;;;;11.38;9.30;;;19.60;99.90;;;;;;4992260;28;20645;-66
2023/08/25 02:40:34;;;;;;;13.18;9.00;;;19.70;99.90;;;;;;4999441;28;20294;-66
2023/08/25 02:43:04;;;;;;;10.65;9.20;;;19.60;99.90;;;;;;4967827;28;20403;-66
2023/08/25 02:45:31;;;;;;;13.52;9.88;;;19.60;99.90;;;;;;4996563;28;20209;-66
2023/08/25 02:47:58;;;;;;;16.02;9.65;;;19.50;99.90;;;;;;5003125;28;20202;-66
2023/08/25 02:50:27;;;;;;;12.60;9.45;;;19.60;99.90;;;;;;4989667;28;20205;-66
2023/08/25 02:52:54;;;;;;;10.32;9.23;;;19.50;99.90;;;;;;4993736;28;20217;-66
2023/08/25 02:55:23;;;;;;;11.27;9.63;;;18.30;99.90;;;;;;4990242;28;20209;-66
2023/08/25 02:57:50;;;;;;;15.05;8.63;;;19.50;99.90;;;;;;4999131;28;20238;-66
2023/08/25 03:00:20;;;;;;;13.73;10.18;;;19.60;99.90;;;;;;4962111;28;20214;-66
2023/08/25 03:02:48;;;;;;;14.73;10.57;;;19.50;99.90;;;;;;4991801;28;20253;-66
2023/08/25 03:05:15;;;;;;;10.90;9.07;;;19.50;99.90;;;;;;4989037;28;22089;-66
2023/08/25 03:07:43;;;;;;;15.35;9.88;;;19.50;99.90;;;;;;4990837;28;20194;-66
2023/08/25 03:10:10;;;;;;;12.98;9.43;;;19.50;99.90;;;;;;4997154;28;20586;-66
2023/08/25 03:12:38;;;;;;;13.48;9.27;;;19.50;99.90;;;;;;4995493;28;20222;-66
2023/08/25 03:15:05;;;;;;;15.18;11.20;;;19.40;99.90;;;;;;4964230;28;20217;-66
2023/08/25 03:17:32;;;;;;;13.05;10.45;;;19.80;99.90;;;;;;4995905;28;20202;-66
2023/08/25 03:20:02;;;;;;;13.75;9.95;;;19.60;99.90;;;;;;4991360;28;20769;-66
2023/08/25 03:22:29;;;;;;;14.68;11.43;;;19.60;99.90;;;;;;5000640;28;20232;-66
2023/08/25 03:24:57;;;;;;;13.68;10.13;;;19.50;99.90;;;;;;4993231;28;20198;-66
2023/08/25 03:27:24;;;;;;;14.27;10.73;;;19.60;99.90;;;;;;4998412;28;21071;-66
2023/08/25 03:29:51;;;;;;;12.05;10.10;;;19.20;99.90;;;;;;4966491;28;20198;-66
2023/08/25 03:32:18;;;;;;;14.20;11.00;;;19.60;99.90;;;;;;4994535;28;20273;-66
2023/08/25 03:34:44;;;;;;;14.65;10.60;;;19.60;99.90;;;;;;4993914;28;20203;-66
2023/08/25 03:37:12;;;;;;;16.95;10.50;;;19.60;99.90;;;;;;4996882;28;20206;-66
2023/08/25 03:39:39;;;;;;;15.43;10.60;;;19.60;99.90;;;;;;4989910;28;20241;-66
2023/08/25 03:42:07;;;;;;;16.98;10.50;;;19.60;99.90;;;;;;4989098;28;20204;-66
2023/08/25 03:44:34;;;;;;;14.73;11.35;;;19.60;99.90;;;;;;4978583;28;20221;-66
2023/08/25 03:47:01;;;;;;;17.00;11.02;;;19.60;99.90;;;;;;4966083;28;20205;-66
2023/08/25 03:49:30;;;;;;;15.65;11.32;;;19.50;99.90;;;;;;4984905;28;20218;-66
2023/08/25 03:51:58;;;;;;;14.00;11.38;;;19.60;99.90;;;;;;4978631;28;20237;-66
2023/08/25 03:54:25;;;;;;;14.60;11.23;;;19.50;99.90;;;;;;4984391;28;20210;-66
2023/08/25 03:56:52;;;;;;;15.95;11.27;;;19.50;99.90;;;;;;4980711;28;20744;-66
2023/08/25 03:59:20;;;;;;;14.95;10.73;;;19.50;99.90;;;;;;4985945;28;20218;-66
2023/08/25 04:01:47;;;;;;;15.07;11.05;;;19.50;99.90;;;;;;4947596;28;20225;-66
2023/08/25 04:04:14;;;;;;;11.55;10.32;;;19.50;99.90;;;;;;4982883;28;20234;-66
2023/08/25 04:06:41;;;;;;;13.98;10.95;;;19.50;99.90;;;;;;4981378;28;20696;-66
2023/08/25 04:09:08;;;;;;;15.90;11.85;;;19.70;99.90;;;;;;4969243;28;20469;-66
2023/08/25 04:11:35;;;;;;;17.98;11.75;;;19.30;99.90;;;;;;4975533;28;20234;-66
2023/08/25 04:14:02;;;;;;;17.40;10.82;;;19.50;99.90;;;;;;4986594;28;20835;-66
2023/08/25 04:16:30;;;;;;;13.63;11.13;;;19.30;99.90;;;;;;4976393;28;20198;-66
2023/08/25 04:18:57;;;;;;;13.35;10.60;;;19.40;99.90;;;;;;4967490;28;20324;-66
2023/08/25 04:21:24;;;;;;;13.98;10.88;;;19.50;99.90;;;;;;5003667;28;20205;-66
2023/08/25 04:23:51;;;;;;;12.30;11.02;;;19.40;99.90;;;;;;4988970;28;20226;-66
2023/08/25 04:26:17;;;;;;;15.98;11.13;;;19.70;99.90;;;;;;5002323;28;20206;-66
2023/08/25 04:28:44;;;;;;;15.18;11.60;;;19.40;99.90;;;;;;4998955;28;20196;-66
2023/08/25 04:31:11;;;;;;;23.08;12.15;;;19.40;99.90;;;;;;5001242;28;20207;-66
2023/08/25 04:33:39;;;;;;;14.88;10.52;;;19.10;99.90;;;;;;4963657;28;20758;-66
2023/08/25 04:36:06;;;;;;;13.43;10.40;;;19.50;99.90;;;;;;5003024;28;20201;-66
2023/08/25 04:38:33;;;;;;;15.07;12.20;;;19.20;99.90;;;;;;4992031;28;20207;-66
2023/08/25 04:41:00;;;;;;;14.55;11.50;;;19.30;99.90;;;;;;4990113;28;20620;-66
2023/08/25 04:43:27;;;;;;;15.10;10.85;;;19.30;99.90;;;;;;5004007;28;20217;-66
2023/08/25 04:45:54;;;;;;;15.55;11.60;;;19.30;99.90;;;;;;4993739;28;20222;-66
2023/08/25 04:48:22;;;;;;;13.90;11.05;;;19.30;99.90;;;;;;4990084;28;20222;-66
2023/08/25 04:50:50;;;;;;;13.35;10.77;;;19.30;99.90;;;;;;4939757;28;20302;-67
2023/08/25 04:53:17;;;;;;;15.90;11.05;;;19.30;99.90;;;;;;4983249;28;20213;-66
2023/08/25 04:55:44;;;;;;;13.30;11.65;;;19.30;99.90;;;;;;4975110;28;20222;-66
2023/08/25 04:58:11;;;;;;;15.25;11.20;;;19.20;99.90;;;;;;4983076;28;20762;-66
2023/08/25 05:00:37;;;;;;;15.27;11.30;;;19.30;99.90;;;;;;4998710;28;20206;-66
2023/08/25 05:03:05;;;;;;;15.90;11.65;;;19.30;99.90;;;;;;4989369;28;20221;-66
2023/08/25 05:05:32;;;;;;;12.93;11.27;;;19.30;99.90;;;;;;4937243;28;20206;-66
2023/08/25 05:08:00;;;;;;;13.98;10.93;;;19.30;99.90;;;;;;4973137;28;20825;-66
2023/08/25 05:10:27;;;;;;;14.20;10.15;;;19.30;99.90;;;;;;4996534;28;20210;-66
2023/08/25 05:12:53;;;;;;;17.92;11.05;;;19.20;99.90;;;;;;4984051;28;20590;-66
2023/08/25 05:15:20;;;;;;;14.38;10.40;;;19.30;99.90;;;;;;4988711;28;20432;-66
2023/08/25 05:17:47;;;;;;;15.02;11.25;;;19.20;99.90;;;;;;5003201;28;20204;-66
2023/08/25 05:20:20;;;;;;;18.25;11.68;;;19.20;99.90;;;;;;4954578;28;20696;-66
2023/08/25 05:22:47;;;;;;;16.85;11.43;;;19.30;99.90;;;;;;4983675;28;20325;-66
2023/08/25 05:25:15;;;;;;;16.15;11.90;;;19.40;99.90;;;;;;4993185;28;20225;-65
2023/08/25 05:27:42;;;;;;;14.40;12.23;;;19.40;99.90;;;;;;4963627;28;20198;-66
2023/08/25 05:30:10;;;;;;;14.50;11.25;;;19.30;99.90;;;;;;4980665;28;20735;-66
2023/08/25 05:32:37;;;;;;;13.98;11.43;;;19.40;99.90;;;;;;4982975;28;20217;-66
2023/08/25 05:35:04;;;;;;;15.45;11.98;;;19.40;99.90;;;;;;4950863;28;20257;-66
2023/08/25 05:37:33;;;;;;;14.93;12.70;;;19.40;99.90;;;;;;4993741;28;20198;-65
2023/08/25 05:40:00;;;;;;;16.63;14.05;;;19.40;99.90;;;;;;4984141;28;20300;-66
2023/08/25 05:42:28;;;;;;;19.80;15.00;;;19.40;99.90;;;;;;4978147;28;20625;-65
2023/08/25 05:44:55;;;;;;;18.55;13.60;;;19.50;99.90;;;;;;4986570;28;20443;-65
2023/08/25 05:47:22;;;;;;;17.25;13.82;;;19.50;99.90;;;;;;4971722;28;20221;-65
2023/08/25 05:49:50;;;;;;;17.15;13.98;;;19.60;99.90;;;;;;4990269;28;20225;-65
2023/08/25 05:52:17;;;;;;;22.77;15.15;;;19.60;99.90;;;;;;4927479;28;20214;-66
2023/08/25 05:54:43;;;;;;;21.67;15.77;;;19.70;99.90;;;;;;4968212;28;20218;-66
2023/08/25 05:57:10;;;;;;;22.65;15.23;;;19.70;99.90;;;;;;4979015;28;20228;-66
2023/08/25 05:59:38;;;;;;;21.27;15.93;;;19.70;99.90;;;;;;4977873;28;20206;-65
2023/08/25 06:02:06;;;;;;;21.13;16.20;;;19.80;99.90;;;;;;4972244;28;20205;-66
2023/08/25 06:04:32;;;;;;;20.23;15.02;;;19.80;99.90;;;;;;4989390;28;20328;-66
2023/08/25 06:06:59;;;;;;;22.60;16.02;;;19.80;99.90;;;;;;4951765;28;20219;-66
2023/08/25 06:09:26;;;;;;;21.60;16.13;;;19.80;99.90;;;;;;4995162;28;20201;-66
2023/08/25 06:11:53;;;;;;;23.95;16.40;;;19.90;99.90;;;;;;4961074;28;20218;-66
2023/08/25 06:14:20;;;;;;;25.70;16.77;;;19.90;99.90;;;;;;4977618;28;22907;-66
2023/08/25 06:16:48;;;;;;;22.63;16.70;;;19.90;99.90;;;;;;4983498;28;20208;-66
2023/08/25 06:19:15;;;;;;;27.02;17.80;;;20.10;99.90;;;;;;4999570;28;20272;-66
2023/08/25 06:21:42;;;;;;;26.75;17.58;;;20.10;99.90;;;;;;4958206;28;20209;-66
2023/08/25 06:24:09;;;;;;;26.77;17.52;;;20.10;99.90;;;;;;4994831;28;20329;-66
2023/08/25 06:26:36;;;;;;;24.60;18.95;;;20.10;99.90;;;;;;4992635;28;20199;-66
2023/08/25 06:29:03;;;;;;;25.13;18.52;;;20.30;99.90;;;;;;4997988;28;20199;-66
2023/08/25 06:31:33;;;;;;;24.98;18.25;;;20.20;99.90;;;;;;4990955;28;20202;-66
2023/08/25 06:34:03;;;;;;;25.75;17.63;;;20.20;99.90;;;;;;4992496;28;20331;-66
2023/08/25 06:36:30;;;;;;;23.88;18.52;;;20.30;99.90;;;;;;4956396;28;20236;-66
2023/08/25 06:38:57;;;;;;;22.27;17.45;;;20.30;99.90;;;;;;4993881;28;20355;-66
2023/08/25 06:41:24;;;;;;;23.23;16.58;;;20.30;99.90;;;;;;4990719;28;20299;-66
2023/08/25 06:43:50;;;;;;;23.60;18.17;;;20.30;99.90;;;;;;4998438;28;21037;-66
2023/08/25 06:46:17;;;;;;;23.65;17.63;;;20.10;99.90;;;;;;4977882;28;20209;-66
2023/08/25 06:48:45;;;;;;;22.08;17.27;;;20.30;99.90;;;;;;4995064;28;20281;-66
2023/08/25 06:51:13;;;;;;;24.10;18.23;;;20.00;99.90;;;;;;4964150;28;20660;-66
2023/08/25 06:53:40;;;;;;;26.98;17.77;;;20.40;99.90;;;;;;4963480;28;20217;-66
2023/08/25 06:56:07;;;;;;;23.83;16.58;;;21.10;99.90;;;;;;4982745;28;21063;-66
2023/08/25 06:58:36;;;;;;;22.80;16.65;;;20.40;99.90;;;;;;4994828;28;20267;-66
2023/08/25 07:01:04;;;;;;;22.45;17.10;;;20.40;99.90;;;;;;4978265;28;20699;-66
2023/08/25 07:03:31;;;;;;;23.83;16.83;;;20.30;99.90;;;;;;4980078;28;20230;-66
2023/08/25 07:05:58;;;;;;;20.23;15.65;;;20.30;99.90;;;;;;4991856;28;20225;-66
2023/08/25 07:08:26;;;;;;;19.83;15.98;;;20.40;99.90;;;;;;4942203;28;20683;-65
2023/08/25 07:10:53;;;;;;;22.25;15.65;;;20.30;99.90;;;;;;4994476;28;20512;-65
2023/08/25 07:13:20;;;;;;;22.27;16.10;;;20.30;99.90;;;;;;4984072;28;20416;-65
2023/08/25 07:15:47;;;;;;;18.55;15.48;;;20.30;99.90;;;;;;4969831;28;20194;-65
2023/08/25 07:18:13;;;;;;;21.88;16.20;;;20.40;99.90;;;;;;4977624;28;20715;-66
2023/08/25 07:20:40;;;;;;;20.13;14.90;;;20.40;99.90;;;;;;4996514;28;20198;-65
2023/08/25 07:23:07;;;;;;;23.58;15.90;;;20.30;99.90;;;;;;4952457;28;20209;-66
2023/08/25 07:25:37;;;;;;;24.00;16.60;;;20.40;99.90;;;;;;4992197;28;20260;-65
2023/08/25 07:28:05;;;;;;;24.58;15.35;;;20.40;99.90;;;;;;4987171;28;20701;-66
2023/08/25 07:30:31;;;;;;;19.40;15.20;;;20.30;99.90;;;;;;4992951;28;20194;-66
2023/08/25 07:32:58;;;;;;;22.02;15.90;;;20.50;99.90;;;;;;4989816;28;20209;-65
2023/08/25 07:35:25;;;;;;;22.92;15.00;;;20.40;99.90;;;;;;4992560;28;22468;-65
2023/08/25 07:37:54;;;;;;;19.40;15.35;;;20.50;99.90;;;;;;4956726;28;20218;-65
2023/08/25 07:40:21;;;;;;;19.10;14.23;;;20.60;99.90;;;;;;4990748;28;20797;-66
2023/08/25 07:42:49;;;;;;;26.73;16.17;;;20.60;99.90;;;;;;4994657;28;20281;-66
2023/08/25 07:45:16;;;;;;;22.33;15.80;;;20.60;99.90;;;;;;4979505;28;20226;-66
2023/08/25 07:47:43;;;;;;;22.60;15.73;;;20.60;99.90;;;;;;4998215;28;20276;-66
2023/08/25 07:50:11;;;;;;;22.60;15.75;;;20.80;99.90;;;;;;4983367;28;21803;-66
2023/08/25 07:52:37;;;;;;;24.13;16.40;;;20.80;99.90;;;;;;4990591;28;20213;-66
2023/08/25 07:55:05;;;;;;;25.73;15.80;;;20.70;99.90;;;;;;4957045;28;20217;-66
2023/08/25 07:57:32;;;;;;;22.20;15.98;;;20.70;99.90;;;;;;4981657;28;20360;-66
2023/08/25 08:00:00;;;;;;;19.40;15.82;;;20.60;99.90;;;;;;4984398;28;20293;-66
2023/08/25 08:02:27;;;;;;;21.10;15.88;;;20.70;99.90;;;;;;4986059;28;20787;-66
2023/08/25 08:04:54;;;;;;;22.08;15.68;;;20.80;99.90;;;;;;4983997;28;20225;-67
2023/08/25 08:07:21;;;;;;;23.02;16.42;;;20.70;99.90;;;;;;4986838;28;20610;-67
2023/08/25 08:09:48;;;;;;;26.58;16.50;;;20.70;99.90;;;;;;4945605;28;20223;-67
2023/08/25 08:12:14;;;;;;;24.60;16.58;;;21.30;99.90;;;;;;4999306;28;20325;-66
2023/08/25 08:14:41;;;;;;;22.88;16.33;;;20.70;99.90;;;;;;5001591;28;20289;-67
2023/08/25 08:17:09;;;;;;;25.55;16.25;;;20.70;99.90;;;;;;4984975;28;20220;-66
2023/08/25 08:19:36;;;;;;;24.27;16.52;;;20.80;99.90;;;;;;4991243;28;20205;-66
2023/08/25 08:22:04;;;;;;;24.40;15.85;;;20.70;99.90;;;;;;5000426;28;20582;-66
2023/08/25 08:24:30;;;;;;;23.05;17.42;;;20.60;99.90;;;;;;4998936;28;20230;-66
2023/08/25 08:26:58;;;;;;;24.38;16.85;;;20.80;99.90;;;;;;4959556;28;20835;-66
2023/08/25 08:29:26;;;;;;;24.83;16.75;;;20.80;99.90;;;;;;5004603;28;20206;-66
2023/08/25 08:31:55;;;;;;;25.45;16.23;;;20.80;99.90;;;;;;4978890;28;20209;-67
2023/08/25 08:34:23;;;;;;;22.42;15.45;;;20.80;99.90;;;;;;4967652;28;20203;-66
2023/08/25 08:36:50;;;;;;;25.05;17.25;;;20.80;99.90;;;;;;5003725;28;20273;-66
2023/08/25 08:39:17;;;;;;;27.83;17.90;;;20.60;99.90;;;;;;4991997;28;20206;-66
2023/08/25 08:41:45;;;;;;;26.35;17.55;;;20.80;99.90;;;;;;4958498;28;20213;-66
2023/08/25 08:44:16;;;;;;;23.42;16.60;;;20.80;99.90;;;;;;5000609;28;20268;-66
2023/08/25 08:46:43;;;;;;;28.08;18.10;;;20.90;99.90;;;;;;4988733;28;20213;-66
2023/08/25 08:49:11;;;;;;;24.70;17.48;;;20.80;99.90;;;;;;4981061;28;20219;-67
2023/08/25 08:51:41;;;;;;;26.35;17.42;;;20.80;99.90;;;;;;4994542;28;20405;-66
2023/08/25 08:54:08;;;;;;;24.13;16.67;;;20.90;99.90;;;;;;5002104;28;20362;-67
2023/08/25 08:56:35;;;;;;;23.38;17.15;;;20.90;99.90;;;;;;4951415;28;20719;-67
2023/08/25 08:59:03;;;;;;;21.00;15.48;;;21.00;99.90;;;;;;5002193;28;20229;-66
2023/08/25 09:01:31;;;;;;;23.20;17.00;;;21.50;99.90;;;;;;4994096;28;20532;-67
2023/08/25 09:04:00;;;;;;;23.88;16.92;;;21.20;99.90;;;;;;4980391;28;20222;-66
2023/08/25 09:06:31;;;;;;;25.02;16.92;;;21.30;99.90;;;;;;4986852;28;20213;-66
2023/08/25 09:09:04;;;;;;;25.15;18.02;;;21.30;99.90;;;;;;4999494;28;20199;-67
2023/08/25 09:11:31;;;;;;;23.25;17.02;;;21.30;99.90;;;;;;4971019;28;20773;-67
2023/08/25 09:14:03;;;;;;;27.23;19.15;;;22.00;99.90;;;;;;4963209;28;20210;-67
2023/08/25 09:16:33;;;;;;;23.13;17.23;;;21.30;99.90;;;;;;4996111;28;20674;-66
2023/08/25 09:19:01;;;;;;;25.60;16.98;;;21.20;99.90;;;;;;4991333;28;20206;-67
2023/08/25 09:21:28;;;;;;;21.38;15.35;;;21.30;99.90;;;;;;4974833;28;21973;-67
2023/08/25 09:23:58;;;;;;;23.30;16.60;;;21.30;99.90;;;;;;4997989;28;20194;-67
2023/08/25 09:26:27;;;;;;;25.80;15.95;;;21.30;99.90;;;;;;4987094;28;20358;-67
2023/08/25 09:28:54;;;;;;;24.70;17.58;;;21.30;99.90;;;;;;4960671;28;20227;-66
2023/08/25 09:31:22;;;;;;;22.27;16.38;;;21.30;99.90;;;;;;4993743;28;20205;-66
2023/08/25 09:33:51;;;;;;;23.67;15.45;;;21.30;99.90;;;;;;4977785;28;20229;-66
2023/08/25 09:36:18;;;;;;;25.00;15.25;;;21.30;99.90;;;;;;4990961;28;20210;-67
2023/08/25 09:38:46;;;;;;;24.50;15.55;;;21.30;99.90;;;;;;4998745;28;20332;-66
2023/08/25 09:41:13;;;;;;;30.27;17.13;;;21.30;99.90;;;;;;5000623;28;20215;-66
2023/08/25 09:43:41;;;;;;;23.35;16.23;;;21.30;99.90;;;;;;4944712;28;22322;-66
2023/08/25 09:46:09;;;;;;;25.45;17.80;;;21.30;99.90;;;;;;4996976;28;20221;-67
2023/08/25 09:48:36;;;;;;;24.17;17.55;;;21.40;99.90;;;;;;4984461;28;20882;-67
2023/08/25 09:51:06;;;;;;;25.95;17.35;;;21.30;99.90;;;;;;4985523;28;20206;-67
2023/08/25 09:53:34;;;;;;;21.98;17.23;;;21.40;99.90;;;;;;4984745;28;20198;-66
2023/08/25 09:56:04;;;;;;;24.17;16.85;;;21.40;99.90;;;;;;4984935;28;20233;-66
2023/08/25 09:58:32;;;;;;;22.15;16.60;;;21.50;99.90;;;;;;4983290;28;20385;-67
2023/08/25 10:01:00;;;;;;;24.17;16.13;;;21.50;99.90;;;;;;4967157;28;20217;-67
2023/08/25 10:03:27;;;;;;;24.30;15.93;;;21.50;99.90;;;;;;4988897;28;21536;-66
2023/08/25 10:05:55;;;;;;;21.73;14.98;;;21.60;99.90;;;;;;4986956;28;20762;-66
2023/08/25 10:08:24;;;;;;;18.17;14.18;;;21.50;99.90;;;;;;4981065;28;20208;-66
2023/08/25 10:10:51;;;;;;;22.77;15.57;;;21.50;99.90;;;;;;4991205;28;20643;-67
2023/08/25 10:13:19;;;;;;;22.00;15.75;;;21.40;99.90;;;;;;4994108;28;20194;-67
2023/08/25 10:15:47;;;;;;;23.08;15.85;;;21.40;99.90;;;;;;4960160;28;20576;-66
2023/08/25 10:18:15;;;;;;;20.98;15.18;;;21.30;99.90;;;;;;5001852;28;20214;-66
2023/08/25 10:20:44;;;;;;;22.42;15.80;;;21.30;99.90;;;;;;4985035;28;20237;-66
2023/08/25 10:23:11;;;;;;;21.98;15.48;;;21.30;99.90;;;;;;4994883;28;20218;-67
2023/08/25 10:25:38;;;;;;;23.73;15.38;;;21.30;99.90;;;;;;4980706;28;21237;-67
2023/08/25 10:28:08;;;;;;;18.42;15.32;;;21.30;99.90;;;;;;4995116;28;20226;-67
2023/08/25 10:30:35;;;;;;;21.73;15.52;;;21.30;99.90;;;;;;4938801;28;20242;-67
2023/08/25 10:33:05;;;;;;;22.55;14.82;;;21.30;99.90;;;;;;5008920;28;20194;-66
2023/08/25 10:35:41;;;;;;;21.58;15.30;;;21.30;99.90;;;;;;4993648;28;20226;-66
2023/08/25 10:38:36;;;;;;;19.05;14.60;;;21.30;99.90;;;;;;5007338;28;20264;-67
2023/08/25 10:41:15;;;;;;;22.55;15.77;;;21.30;99.90;;;;;;5001680;28;20975;-67
2023/08/25 10:43:45;;;;;;;21.30;15.38;;;21.30;99.90;;;;;;5003976;28;20212;-67
2023/08/25 10:46:12;;;;;;;17.63;14.88;;;21.30;99.90;;;;;;4961724;28;20610;-67
2023/08/25 10:48:40;;;;;;;22.48;15.63;;;21.30;99.90;;;;;;5008647;28;20198;-67
2023/08/25 10:51:10;;;;;;;21.02;15.10;;;21.30;99.90;;;;;;5001515;28;20221;-66
2023/08/25 10:53:44;;;;;;;23.13;16.58;;;21.30;99.90;;;;;;5005243;28;21467;-66
2023/08/25 10:56:15;;;;;;;24.08;15.82;;;21.20;99.90;;;;;;4997724;28;20218;-67
2023/08/25 10:58:43;;;;;;;21.85;14.60;;;21.20;99.90;;;;;;5008386;28;20894;-67
2023/08/25 11:01:10;;;;;;;23.85;15.48;;;21.20;99.90;;;;;;4963722;28;20213;-66
2023/08/25 11:03:47;;;;;;;19.90;15.23;;;21.20;99.90;;;;;;4985284;28;21606;-67
2023/08/25 11:06:38;;;;;;;24.00;15.63;;;21.20;99.90;;;;;;4983090;28;20233;-67
2023/08/25 11:09:04;;;;;;;28.45;15.82;;;21.20;99.90;;;;;;4999668;28;20328;-67
2023/08/25 11:11:34;;;;;;;22.20;16.02;;;21.10;99.90;;;;;;4996553;28;20202;-67
2023/08/25 11:14:01;;;;;;;22.25;15.13;;;21.10;99.90;;;;;;4996988;28;20314;-66
2023/08/25 11:16:28;;;;;;;25.35;14.93;;;21.20;99.90;;;;;;4954665;28;20597;-67
2023/08/25 11:18:55;;;;;;;21.88;14.95;;;21.10;99.90;;;;;;4996049;28;22543;-66
2023/08/25 11:21:24;;;;;;;26.15;14.68;;;21.30;99.90;;;;;;4994722;28;20679;-67
2023/08/25 11:23:52;;;;;;;20.63;16.35;;;21.10;99.90;;;;;;5003198;28;20360;-67
2023/08/25 11:26:19;;;;;;;25.45;17.35;;;21.10;99.90;;;;;;4994244;28;20244;-67
2023/08/25 11:28:52;;;;;;;23.50;16.67;;;21.10;99.90;;;;;;5001997;28;20784;-66
2023/08/25 11:31:21;;;;;;;22.83;16.33;;;21.10;99.90;;;;;;4982807;28;20296;-67
2023/08/25 11:33:50;;;;;;;27.48;17.90;;;21.00;99.90;;;;;;4967845;28;20532;-67
2023/08/25 11:36:17;;;;;;;25.45;17.08;;;21.10;99.90;;;;;;4997937;28;20213;-67
2023/08/25 11:38:48;;;;;;;22.20;16.65;;;20.90;99.90;;;;;;4976697;28;20317;-67
2023/08/25 11:41:16;;;;;;;21.60;16.60;;;21.00;99.90;;;;;;4984002;28;20226;-67
2023/08/25 11:43:45;;;;;;;22.88;17.10;;;21.00;99.90;;;;;;4981304;28;20206;-67
2023/08/25 11:46:13;;;;;;;30.00;17.67;;;21.00;99.90;;;;;;4988942;28;20680;-68
2023/08/25 11:48:41;;;;;;;25.10;17.30;;;21.00;99.90;;;;;;4962399;28;20214;-68
2023/08/25 11:51:14;;;;;;;26.75;18.60;;;21.00;99.90;;;;;;5004840;28;20207;-68
2023/08/25 11:53:42;;;;;;;23.08;17.63;;;21.00;99.90;;;;;;4990185;28;20710;-66
2023/08/25 11:56:15;;;;;;;22.83;17.13;;;21.00;99.90;;;;;;4995013;28;20206;-68
2023/08/25 11:58:47;;;;;;;25.85;16.65;;;20.90;99.90;;;;;;4996248;28;20781;-66
2023/08/25 12:01:14;;;;;;;26.13;17.08;;;20.90;99.90;;;;;;4991799;28;20226;-67
2023/08/25 12:03:42;;;;;;;31.67;17.13;;;21.00;99.90;;;;;;4993911;28;20316;-66
2023/08/25 12:06:10;;;;;;;20.38;15.75;;;20.90;99.90;;;;;;4964724;28;20233;-67
2023/08/25 12:08:39;;;;;;;21.85;15.73;;;21.00;99.90;;;;;;4990876;28;20207;-67
2023/08/25 12:11:07;;;;;;;25.20;16.25;;;20.90;99.90;;;;;;4999633;28;20206;-67
2023/08/25 12:13:37;;;;;;;26.63;17.13;;;20.90;99.90;;;;;;4999798;28;20213;-67
2023/08/25 12:16:05;;;;;;;23.08;16.52;;;20.80;99.90;;;;;;4972053;28;20306;-67
2023/08/25 12:18:34;;;;;;;22.35;16.42;;;20.80;99.90;;;;;;4993768;28;20308;-66
2023/08/25 12:24:23;;;;;;;21.95;16.55;;;20.80;99.90;;;;;;5004631;22;20824;-67
2023/08/25 12:26:50;;;;;;;22.73;17.15;;;20.80;99.90;;;;;;4999660;28;20234;-66
2023/08/25 12:29:17;;;;;;;22.80;16.95;;;20.80;99.90;;;;;;5002600;28;20621;-67
2023/08/25 12:31:45;;;;;;;22.17;17.13;;;20.70;99.90;;;;;;4980723;28;20198;-67
2023/08/25 12:34:12;;;;;;;24.00;17.08;;;20.80;99.90;;;;;;4988006;28;20623;-66
2023/08/25 12:36:39;;;;;;;23.35;16.23;;;20.80;99.90;;;;;;4965640;28;20202;-68
2023/08/25 12:39:06;;;;;;;21.65;16.88;;;21.00;99.90;;;;;;4985475;28;20334;-67